KANW/ANW METAR and TAF weather

Enter ICAO airport designator
Station Type Date Time Source
KANW METAR 2021/04/13 08:35 UTC NOAA

KANW 130835Z AUTO 25008KT 10SM SCT045 M03/M07 A3018 RMK AO2 T10291067


Station Type Date Time Source
KANW Decoded METAR 2021/04/13 08:35 UTC NOAA

Ainsworth Municipal, NE, United States (KANW) 42-35N 100-00W
Apr 13, 2021 - 04:35 AM EDT / 2021.04.13 0835 UTC
Wind: from the WSW (250 degrees) at 9 MPH (8 KT):0
Visibility: 10 mile(s):0
Sky conditions: partly cloudy
Temperature: 26.8 F (-2.9 C)
Windchill: 17 F (-8 C):1
Dew Point: 19.9 F (-6.7 C)
Relative Humidity: 75%
Pressure (altimeter): 30.18 in. Hg (1022 hPa)
ob: KANW 130835Z AUTO 25008KT 10SM SCT045 M03/M07 A3018 RMK AO2 T10291067
cycle: 8

Station Type Date Time Source
KANW TAF UTC NOAA

Error!

Example: see airport list